sensor_id;sensor_type;location;lat;lon;timestamp;temperature;humidity
74458;SHT31;62896;51.032;3.712;2023-05-29T00:00:11;14.2;82
74458;SHT31;62896;51.032;3.712;2023-05-29T00:03:31;14.2;82
74458;SHT31;62896;51.032;3.712;2023-05-29T00:06:51;14.1;83
74458;SHT31;62896;51.032;3.712;2023-05-29T00:10:11;14.1;83
74458;SHT31;62896;51.032;3.712;2023-05-29T00:13:31;14.1;83
74458;SHT31;62896;51.032;3.712;2023-05-29T00:16:51;14;83
74458;SHT31;62896;51.032;3.712;2023-05-29T00:20:11;14;83
74458;SHT31;62896;51.032;3.712;2023-05-29T00:23:31;14;83
74458;SHT31;62896;51.032;3.712;2023-05-29T00:26:51;13.9;83
74458;SHT31;62896;51.032;3.712;2023-05-29T00:30:11;13.9;83
74458;SHT31;62896;51.032;3.712;2023-05-29T00:33:31;13.9;83
74458;SHT31;62896;51.032;3.712;2023-05-29T00:36:51;13.7;84
74458;SHT31;62896;51.032;3.712;2023-05-29T00:40:11;13.7;84
74458;SHT31;62896;51.032;3.712;2023-05-29T00:43:31;13.7;84
74458;SHT31;62896;51.032;3.712;2023-05-29T00:46:51;13.6;84
74458;SHT31;62896;51.032;3.712;2023-05-29T00:50:11;13.6;84
74458;SHT31;62896;51.032;3.712;2023-05-29T00:53:31;13.6;84
74458;SHT31;62896;51.032;3.712;2023-05-29T00:56:51;13.5;84
74458;SHT31;62896;51.032;3.712;2023-05-29T01:00:11;13.5;84
74458;SHT31;62896;51.032;3.712;2023-05-29T01:03:31;13.5;84
74458;SHT31;62896;51.032;3.712;2023-05-29T01:06:51;13.4;84
74458;SHT31;62896;51.032;3.712;2023-05-29T01:10:11;13.4;84
74458;SHT31;62896;51.032;3.712;2023-05-29T01:13:31;13.4;84
74458;SHT31;62896;51.032;3.712;2023-05-29T01:16:53;13.2;82
74458;SHT31;62896;51.032;3.712;2023-05-29T01:20:21;13.2;82
74458;SHT31;62896;51.032;3.712;2023-05-29T01:23:51;13.2;82
74458;SHT31;62896;51.032;3.712;2023-05-29T01:26:52;13.1;79
74458;SHT31;62896;51.032;3.712;2023-05-29T01:30:11;13.1;79
74458;SHT31;62896;51.032;3.712;2023-05-29T01:33:32;13.1;79
74458;SHT31;62896;51.032;3.712;2023-05-29T01:36:51;12.9;78
74458;SHT31;62896;51.032;3.712;2023-05-29T01:40:11;12.9;78
74458;SHT31;62896;51.032;3.712;2023-05-29T01:43:31;12.9;78
74458;SHT31;62896;51.032;3.712;2023-05-29T01:46:51;12.8;78
74458;SHT31;62896;51.032;3.712;2023-05-29T01:50:11;12.8;78
74458;SHT31;62896;51.032;3.712;2023-05-29T01:53:31;12.8;78
74458;SHT31;62896;51.032;3.712;2023-05-29T01:56:51;12.7;77
74458;SHT31;62896;51.032;3.712;2023-05-29T02:00:12;12.7;77
74458;SHT31;62896;51.032;3.712;2023-05-29T02:03:31;12.7;77
74458;SHT31;62896;51.032;3.712;2023-05-29T02:06:51;12.6;77
74458;SHT31;62896;51.032;3.712;2023-05-29T02:10:11;12.6;77
74458;SHT31;62896;51.032;3.712;2023-05-29T02:13:31;12.6;77
74458;SHT31;62896;51.032;3.712;2023-05-29T02:16:51;12.5;77
74458;SHT31;62896;51.032;3.712;2023-05-29T02:20:11;12.5;77
74458;SHT31;62896;51.032;3.712;2023-05-29T02:23:31;12.5;77
74458;SHT31;62896;51.032;3.712;2023-05-29T02:26:51;12.3;77
74458;SHT31;62896;51.032;3.712;2023-05-29T02:30:11;12.3;77
74458;SHT31;62896;51.032;3.712;2023-05-29T02:33:31;12.3;77
74458;SHT31;62896;51.032;3.712;2023-05-29T02:36:51;12.2;77
74458;SHT31;62896;51.032;3.712;2023-05-29T02:40:11;12.2;77
74458;SHT31;62896;51.032;3.712;2023-05-29T02:43:31;12.2;77
74458;SHT31;62896;51.032;3.712;2023-05-29T02:46:51;12.1;77
74458;SHT31;62896;51.032;3.712;2023-05-29T02:50:11;12.1;77
74458;SHT31;62896;51.032;3.712;2023-05-29T02:53:31;12.1;77
74458;SHT31;62896;51.032;3.712;2023-05-29T02:56:51;12;77
74458;SHT31;62896;51.032;3.712;2023-05-29T03:00:11;12;77
74458;SHT31;62896;51.032;3.712;2023-05-29T03:03:31;12;77
74458;SHT31;62896;51.032;3.712;2023-05-29T03:06:51;12;77
74458;SHT31;62896;51.032;3.712;2023-05-29T03:10:11;12;77
74458;SHT31;62896;51.032;3.712;2023-05-29T03:13:31;12;77
74458;SHT31;62896;51.032;3.712;2023-05-29T03:16:51;11.9;76
74458;SHT31;62896;51.032;3.712;2023-05-29T03:20:11;11.9;76
74458;SHT31;62896;51.032;3.712;2023-05-29T03:23:31;11.9;76
74458;SHT31;62896;51.032;3.712;2023-05-29T03:26:51;11.8;77
74458;SHT31;62896;51.032;3.712;2023-05-29T03:30:11;11.8;77
74458;SHT31;62896;51.032;3.712;2023-05-29T03:33:31;11.8;77
74458;SHT31;62896;51.032;3.712;2023-05-29T03:36:51;11.6;78
74458;SHT31;62896;51.032;3.712;2023-05-29T03:40:12;11.6;78
74458;SHT31;62896;51.032;3.712;2023-05-29T03:43:31;11.6;78
74458;SHT31;62896;51.032;3.712;2023-05-29T03:46:51;11.5;78
74458;SHT31;62896;51.032;3.712;2023-05-29T03:50:11;11.5;78
74458;SHT31;62896;51.032;3.712;2023-05-29T03:53:31;11.5;78
74458;SHT31;62896;51.032;3.712;2023-05-29T03:56:51;11.5;78
74458;SHT31;62896;51.032;3.712;2023-05-29T04:00:11;11.5;78
74458;SHT31;62896;51.032;3.712;2023-05-29T04:03:31;11.5;78
74458;SHT31;62896;51.032;3.712;2023-05-29T04:06:51;11.4;78
74458;SHT31;62896;51.032;3.712;2023-05-29T04:10:11;11.4;78
74458;SHT31;62896;51.032;3.712;2023-05-29T04:13:31;11.4;78
74458;SHT31;62896;51.032;3.712;2023-05-29T04:16:51;11.4;79
74458;SHT31;62896;51.032;3.712;2023-05-29T04:20:11;11.4;79
74458;SHT31;62896;51.032;3.712;2023-05-29T04:23:31;11.4;79
74458;SHT31;62896;51.032;3.712;2023-05-29T04:26:51;11.4;79
74458;SHT31;62896;51.032;3.712;2023-05-29T04:30:11;11.4;79
74458;SHT31;62896;51.032;3.712;2023-05-29T04:33:31;11.4;79
74458;SHT31;62896;51.032;3.712;2023-05-29T04:36:51;11.3;79
74458;SHT31;62896;51.032;3.712;2023-05-29T04:40:11;11.3;79
74458;SHT31;62896;51.032;3.712;2023-05-29T04:43:31;11.3;79
74458;SHT31;62896;51.032;3.712;2023-05-29T04:46:51;11.4;79
74458;SHT31;62896;51.032;3.712;2023-05-29T04:50:11;11.4;79
74458;SHT31;62896;51.032;3.712;2023-05-29T04:53:31;11.4;79
74458;SHT31;62896;51.032;3.712;2023-05-29T04:56:51;11.3;79
74458;SHT31;62896;51.032;3.712;2023-05-29T05:00:12;11.3;79
74458;SHT31;62896;51.032;3.712;2023-05-29T05:03:31;11.3;79
74458;SHT31;62896;51.032;3.712;2023-05-29T05:06:51;11.4;79
74458;SHT31;62896;51.032;3.712;2023-05-29T05:10:11;11.4;79
74458;SHT31;62896;51.032;3.712;2023-05-29T05:13:31;11.4;79
74458;SHT31;62896;51.032;3.712;2023-05-29T05:16:51;11.5;78
74458;SHT31;62896;51.032;3.712;2023-05-29T05:20:11;11.5;78
74458;SHT31;62896;51.032;3.712;2023-05-29T05:23:31;11.5;78
74458;SHT31;62896;51.032;3.712;2023-05-29T05:26:51;11.5;78
74458;SHT31;62896;51.032;3.712;2023-05-29T05:30:12;11.5;78
74458;SHT31;62896;51.032;3.712;2023-05-29T05:33:31;11.5;78
74458;SHT31;62896;51.032;3.712;2023-05-29T05:36:51;11.7;77
74458;SHT31;62896;51.032;3.712;2023-05-29T05:40:11;11.7;77
74458;SHT31;62896;51.032;3.712;2023-05-29T05:43:31;11.7;77
74458;SHT31;62896;51.032;3.712;2023-05-29T05:46:51;11.8;76
74458;SHT31;62896;51.032;3.712;2023-05-29T05:50:11;11.8;76
74458;SHT31;62896;51.032;3.712;2023-05-29T05:53:31;11.8;76
74458;SHT31;62896;51.032;3.712;2023-05-29T05:56:51;11.8;76
74458;SHT31;62896;51.032;3.712;2023-05-29T06:00:12;11.8;76
74458;SHT31;62896;51.032;3.712;2023-05-29T06:03:31;11.8;76
74458;SHT31;62896;51.032;3.712;2023-05-29T06:06:51;12.2;75
74458;SHT31;62896;51.032;3.712;2023-05-29T06:10:11;12.2;75
74458;SHT31;62896;51.032;3.712;2023-05-29T06:13:31;12.2;75
74458;SHT31;62896;51.032;3.712;2023-05-29T06:16:51;12.4;74
74458;SHT31;62896;51.032;3.712;2023-05-29T06:20:11;12.4;74
74458;SHT31;62896;51.032;3.712;2023-05-29T06:23:31;12.4;74
74458;SHT31;62896;51.032;3.712;2023-05-29T06:26:51;12.6;73
74458;SHT31;62896;51.032;3.712;2023-05-29T06:30:12;12.6;73
74458;SHT31;62896;51.032;3.712;2023-05-29T06:33:31;12.6;73
74458;SHT31;62896;51.032;3.712;2023-05-29T06:36:51;12.8;72
74458;SHT31;62896;51.032;3.712;2023-05-29T06:40:12;12.8;72
74458;SHT31;62896;51.032;3.712;2023-05-29T06:43:31;12.8;72
74458;SHT31;62896;51.032;3.712;2023-05-29T06:46:51;12.9;71
74458;SHT31;62896;51.032;3.712;2023-05-29T06:50:11;12.9;71
74458;SHT31;62896;51.032;3.712;2023-05-29T06:53:31;12.9;71
74458;SHT31;62896;51.032;3.712;2023-05-29T06:56:51;13.2;70
74458;SHT31;62896;51.032;3.712;2023-05-29T07:00:12;13.2;70
74458;SHT31;62896;51.032;3.712;2023-05-29T07:03:32;13.2;70
74458;SHT31;62896;51.032;3.712;2023-05-29T07:06:51;13.4;69
74458;SHT31;62896;51.032;3.712;2023-05-29T07:10:11;13.4;69
74458;SHT31;62896;51.032;3.712;2023-05-29T07:13:31;13.4;69
74458;SHT31;62896;51.032;3.712;2023-05-29T07:16:51;13.7;68
74458;SHT31;62896;51.032;3.712;2023-05-29T07:20:11;13.7;68
74458;SHT31;62896;51.032;3.712;2023-05-29T07:23:31;13.7;68
74458;SHT31;62896;51.032;3.712;2023-05-29T07:26:51;13.9;67
74458;SHT31;62896;51.032;3.712;2023-05-29T07:30:12;13.9;67
74458;SHT31;62896;51.032;3.712;2023-05-29T07:33:31;13.9;67
74458;SHT31;62896;51.032;3.712;2023-05-29T07:37:00;14.4;65
74458;SHT31;62896;51.032;3.712;2023-05-29T07:40:11;14.4;65
74458;SHT31;62896;51.032;3.712;2023-05-29T07:43:31;14.4;65
74458;SHT31;62896;51.032;3.712;2023-05-29T07:46:51;14.1;66
74458;SHT31;62896;51.032;3.712;2023-05-29T07:50:13;14.1;66
74458;SHT31;62896;51.032;3.712;2023-05-29T07:53:31;14.1;66
74458;SHT31;62896;51.032;3.712;2023-05-29T07:56:51;14.5;64
74458;SHT31;62896;51.032;3.712;2023-05-29T08:00:12;14.5;64
74458;SHT31;62896;51.032;3.712;2023-05-29T08:03:31;14.5;64
74458;SHT31;62896;51.032;3.712;2023-05-29T08:06:51;14.7;64
74458;SHT31;62896;51.032;3.712;2023-05-29T08:10:11;14.7;64
74458;SHT31;62896;51.032;3.712;2023-05-29T08:13:31;14.7;64
74458;SHT31;62896;51.032;3.712;2023-05-29T08:16:51;14.9;63
74458;SHT31;62896;51.032;3.712;2023-05-29T08:20:11;14.9;63
74458;SHT31;62896;51.032;3.712;2023-05-29T08:23:31;14.9;63
74458;SHT31;62896;51.032;3.712;2023-05-29T08:26:51;15;62
74458;SHT31;62896;51.032;3.712;2023-05-29T08:30:12;15;62
74458;SHT31;62896;51.032;3.712;2023-05-29T08:33:31;15;62
74458;SHT31;62896;51.032;3.712;2023-05-29T08:36:51;15.3;61
74458;SHT31;62896;51.032;3.712;2023-05-29T08:40:11;15.3;61
74458;SHT31;62896;51.032;3.712;2023-05-29T08:43:31;15.3;61
74458;SHT31;62896;51.032;3.712;2023-05-29T08:46:52;15.3;61
74458;SHT31;62896;51.032;3.712;2023-05-29T08:50:11;15.3;61
74458;SHT31;62896;51.032;3.712;2023-05-29T08:53:31;15.3;61
74458;SHT31;62896;51.032;3.712;2023-05-29T08:56:51;15.4;61
74458;SHT31;62896;51.032;3.712;2023-05-29T09:00:12;15.4;61
74458;SHT31;62896;51.032;3.712;2023-05-29T09:03:31;15.4;61
74458;SHT31;62896;51.032;3.712;2023-05-29T09:06:51;15.9;59
74458;SHT31;62896;51.032;3.712;2023-05-29T09:10:11;15.9;59
74458;SHT31;62896;51.032;3.712;2023-05-29T09:13:31;15.9;59
74458;SHT31;62896;51.032;3.712;2023-05-29T09:16:51;16;60
74458;SHT31;62896;51.032;3.712;2023-05-29T09:20:14;16;60
74458;SHT31;62896;51.032;3.712;2023-05-29T09:23:31;16;60
74458;SHT31;62896;51.032;3.712;2023-05-29T09:26:51;16.2;59
74458;SHT31;62896;51.032;3.712;2023-05-29T09:30:12;16.2;59
74458;SHT31;62896;51.032;3.712;2023-05-29T09:33:31;16.2;59
74458;SHT31;62896;51.032;3.712;2023-05-29T09:36:52;16.3;59
74458;SHT31;62896;51.032;3.712;2023-05-29T09:40:11;16.3;59
74458;SHT31;62896;51.032;3.712;2023-05-29T09:43:31;16.3;59
74458;SHT31;62896;51.032;3.712;2023-05-29T09:46:56;16.5;59
74458;SHT31;62896;51.032;3.712;2023-05-29T09:50:17;16.5;59
74458;SHT31;62896;51.032;3.712;2023-05-29T09:53:31;16.5;59
74458;SHT31;62896;51.032;3.712;2023-05-29T09:56:51;16.5;59
74458;SHT31;62896;51.032;3.712;2023-05-29T10:00:12;16.5;59
74458;SHT31;62896;51.032;3.712;2023-05-29T10:03:32;16.5;59
74458;SHT31;62896;51.032;3.712;2023-05-29T10:06:52;16.5;59
74458;SHT31;62896;51.032;3.712;2023-05-29T10:10:12;16.5;59
74458;SHT31;62896;51.032;3.712;2023-05-29T10:13:33;16.5;59
74458;SHT31;62896;51.032;3.712;2023-05-29T10:16:51;17.1;57
74458;SHT31;62896;51.032;3.712;2023-05-29T10:20:12;17.1;57
74458;SHT31;62896;51.032;3.712;2023-05-29T10:23:31;17.1;57
74458;SHT31;62896;51.032;3.712;2023-05-29T10:26:52;17.1;57
74458;SHT31;62896;51.032;3.712;2023-05-29T10:30:13;17.1;57
74458;SHT31;62896;51.032;3.712;2023-05-29T10:33:36;17.1;57
74458;SHT31;62896;51.032;3.712;2023-05-29T10:36:55;17.2;57
74458;SHT31;62896;51.032;3.712;2023-05-29T10:40:12;17.2;57
74458;SHT31;62896;51.032;3.712;2023-05-29T10:43:32;17.2;57
74458;SHT31;62896;51.032;3.712;2023-05-29T10:47:07;17.6;55
74458;SHT31;62896;51.032;3.712;2023-05-29T10:50:12;17.6;55
74458;SHT31;62896;51.032;3.712;2023-05-29T10:53:32;17.6;55
74458;SHT31;62896;51.032;3.712;2023-05-29T10:56:52;17.9;54
74458;SHT31;62896;51.032;3.712;2023-05-29T11:00:12;17.9;54
74458;SHT31;62896;51.032;3.712;2023-05-29T11:03:32;17.9;54
74458;SHT31;62896;51.032;3.712;2023-05-29T11:06:52;18.2;53
74458;SHT31;62896;51.032;3.712;2023-05-29T11:10:12;18.2;53
74458;SHT31;62896;51.032;3.712;2023-05-29T11:13:32;18.2;53
74458;SHT31;62896;51.032;3.712;2023-05-29T11:16:52;18.6;52
74458;SHT31;62896;51.032;3.712;2023-05-29T11:20:16;18.6;52
74458;SHT31;62896;51.032;3.712;2023-05-29T11:23:32;18.6;52
74458;SHT31;62896;51.032;3.712;2023-05-29T11:26:52;18.7;52
74458;SHT31;62896;51.032;3.712;2023-05-29T11:30:12;18.7;52
74458;SHT31;62896;51.032;3.712;2023-05-29T11:33:32;18.7;52
74458;SHT31;62896;51.032;3.712;2023-05-29T11:36:52;18.8;51
74458;SHT31;62896;51.032;3.712;2023-05-29T11:40:12;18.8;51
74458;SHT31;62896;51.032;3.712;2023-05-29T11:43:32;18.8;51
74458;SHT31;62896;51.032;3.712;2023-05-29T11:46:59;19.2;51
74458;SHT31;62896;51.032;3.712;2023-05-29T11:50:17;19.2;51
74458;SHT31;62896;51.032;3.712;2023-05-29T11:53:32;19.2;51
74458;SHT31;62896;51.032;3.712;2023-05-29T11:56:52;19.2;51
74458;SHT31;62896;51.032;3.712;2023-05-29T12:00:12;19.2;51
74458;SHT31;62896;51.032;3.712;2023-05-29T12:03:36;19.2;51
74458;SHT31;62896;51.032;3.712;2023-05-29T12:06:52;19.6;50
74458;SHT31;62896;51.032;3.712;2023-05-29T12:10:12;19.6;50
74458;SHT31;62896;51.032;3.712;2023-05-29T12:13:32;19.6;50
74458;SHT31;62896;51.032;3.712;2023-05-29T12:16:52;19.7;50
74458;SHT31;62896;51.032;3.712;2023-05-29T12:20:12;19.7;50
74458;SHT31;62896;51.032;3.712;2023-05-29T12:23:32;19.7;50
74458;SHT31;62896;51.032;3.712;2023-05-29T12:26:52;19.9;49
74458;SHT31;62896;51.032;3.712;2023-05-29T12:30:12;19.9;49
74458;SHT31;62896;51.032;3.712;2023-05-29T12:33:32;19.9;49
74458;SHT31;62896;51.032;3.712;2023-05-29T12:36:52;20.1;49
74458;SHT31;62896;51.032;3.712;2023-05-29T12:40:15;20.1;49
74458;SHT31;62896;51.032;3.712;2023-05-29T12:43:32;20.1;49
74458;SHT31;62896;51.032;3.712;2023-05-29T12:46:55;20.2;48
74458;SHT31;62896;51.032;3.712;2023-05-29T12:50:19;20.2;48
74458;SHT31;62896;51.032;3.712;2023-05-29T12:53:32;20.2;48
74458;SHT31;62896;51.032;3.712;2023-05-29T12:56:52;20.3;48
74458;SHT31;62896;51.032;3.712;2023-05-29T13:00:12;20.3;48
74458;SHT31;62896;51.032;3.712;2023-05-29T13:03:32;20.3;48
74458;SHT31;62896;51.032;3.712;2023-05-29T13:06:52;20.9;46
74458;SHT31;62896;51.032;3.712;2023-05-29T13:10:12;20.9;46
74458;SHT31;62896;51.032;3.712;2023-05-29T13:13:32;20.9;46
74458;SHT31;62896;51.032;3.712;2023-05-29T13:16:52;21.1;45
74458;SHT31;62896;51.032;3.712;2023-05-29T13:20:12;21.1;45
74458;SHT31;62896;51.032;3.712;2023-05-29T13:23:32;21.1;45
74458;SHT31;62896;51.032;3.712;2023-05-29T13:26:52;21.3;43
74458;SHT31;62896;51.032;3.712;2023-05-29T13:30:12;21.3;43
74458;SHT31;62896;51.032;3.712;2023-05-29T13:33:32;21.3;43
74458;SHT31;62896;51.032;3.712;2023-05-29T13:36:52;20.9;44
74458;SHT31;62896;51.032;3.712;2023-05-29T13:40:12;20.9;44
74458;SHT31;62896;51.032;3.712;2023-05-29T13:43:32;20.9;44
74458;SHT31;62896;51.032;3.712;2023-05-29T13:46:52;21.2;43
74458;SHT31;62896;51.032;3.712;2023-05-29T13:50:12;21.2;43
74458;SHT31;62896;51.032;3.712;2023-05-29T13:53:32;21.2;43
74458;SHT31;62896;51.032;3.712;2023-05-29T13:56:52;20.9;42
74458;SHT31;62896;51.032;3.712;2023-05-29T14:00:12;20.9;42
74458;SHT31;62896;51.032;3.712;2023-05-29T14:03:32;20.9;42
74458;SHT31;62896;51.032;3.712;2023-05-29T14:06:52;21.1;41
74458;SHT31;62896;51.032;3.712;2023-05-29T14:10:12;21.1;41
74458;SHT31;62896;51.032;3.712;2023-05-29T14:13:32;21.1;41
74458;SHT31;62896;51.032;3.712;2023-05-29T14:16:52;21.6;40
74458;SHT31;62896;51.032;3.712;2023-05-29T14:20:12;21.6;40
74458;SHT31;62896;51.032;3.712;2023-05-29T14:23:32;21.6;40
74458;SHT31;62896;51.032;3.712;2023-05-29T14:26:52;21.8;40
74458;SHT31;62896;51.032;3.712;2023-05-29T14:30:12;21.8;40
74458;SHT31;62896;51.032;3.712;2023-05-29T14:33:32;21.8;40
74458;SHT31;62896;51.032;3.712;2023-05-29T14:36:52;22.1;41
74458;SHT31;62896;51.032;3.712;2023-05-29T14:40:12;22.1;41
74458;SHT31;62896;51.032;3.712;2023-05-29T14:43:32;22.1;41
74458;SHT31;62896;51.032;3.712;2023-05-29T14:46:52;21;44
74458;SHT31;62896;51.032;3.712;2023-05-29T14:50:12;21;44
74458;SHT31;62896;51.032;3.712;2023-05-29T14:53:32;21;44
74458;SHT31;62896;51.032;3.712;2023-05-29T14:56:52;21.2;43
74458;SHT31;62896;51.032;3.712;2023-05-29T15:00:12;21.2;43
74458;SHT31;62896;51.032;3.712;2023-05-29T15:03:32;21.2;43
74458;SHT31;62896;51.032;3.712;2023-05-29T15:06:52;21.2;44
74458;SHT31;62896;51.032;3.712;2023-05-29T15:10:12;21.2;44
74458;SHT31;62896;51.032;3.712;2023-05-29T15:13:32;21.2;44
74458;SHT31;62896;51.032;3.712;2023-05-29T15:16:52;21.2;44
74458;SHT31;62896;51.032;3.712;2023-05-29T15:20:12;21.2;44
74458;SHT31;62896;51.032;3.712;2023-05-29T15:23:32;21.2;44
74458;SHT31;62896;51.032;3.712;2023-05-29T15:26:52;20.7;44
74458;SHT31;62896;51.032;3.712;2023-05-29T15:30:12;20.7;44
74458;SHT31;62896;51.032;3.712;2023-05-29T15:33:32;20.7;44
74458;SHT31;62896;51.032;3.712;2023-05-29T15:36:52;20.2;46
74458;SHT31;62896;51.032;3.712;2023-05-29T15:40:12;20.2;46
74458;SHT31;62896;51.032;3.712;2023-05-29T15:43:32;20.2;46
74458;SHT31;62896;51.032;3.712;2023-05-29T15:46:52;20;47
74458;SHT31;62896;51.032;3.712;2023-05-29T15:50:12;20;47
74458;SHT31;62896;51.032;3.712;2023-05-29T15:53:32;20;47
74458;SHT31;62896;51.032;3.712;2023-05-29T15:56:52;20.1;47
74458;SHT31;62896;51.032;3.712;2023-05-29T16:00:12;20.1;47
74458;SHT31;62896;51.032;3.712;2023-05-29T16:03:32;20.1;47
74458;SHT31;62896;51.032;3.712;2023-05-29T16:06:52;20.1;47
74458;SHT31;62896;51.032;3.712;2023-05-29T16:10:12;20.1;47
74458;SHT31;62896;51.032;3.712;2023-05-29T16:13:32;20.1;47
74458;SHT31;62896;51.032;3.712;2023-05-29T16:16:52;19.7;48
74458;SHT31;62896;51.032;3.712;2023-05-29T16:20:12;19.7;48
74458;SHT31;62896;51.032;3.712;2023-05-29T16:23:32;19.7;48
74458;SHT31;62896;51.032;3.712;2023-05-29T16:26:52;19.4;49
74458;SHT31;62896;51.032;3.712;2023-05-29T16:30:12;19.4;49
74458;SHT31;62896;51.032;3.712;2023-05-29T16:33:32;19.4;49
74458;SHT31;62896;51.032;3.712;2023-05-29T16:36:52;19.2;50
74458;SHT31;62896;51.032;3.712;2023-05-29T16:40:12;19.2;50
74458;SHT31;62896;51.032;3.712;2023-05-29T16:43:32;19.2;50
74458;SHT31;62896;51.032;3.712;2023-05-29T16:46:52;18.8;51
74458;SHT31;62896;51.032;3.712;2023-05-29T16:50:12;18.8;51
74458;SHT31;62896;51.032;3.712;2023-05-29T16:53:32;18.8;51
74458;SHT31;62896;51.032;3.712;2023-05-29T16:56:52;18.8;51
74458;SHT31;62896;51.032;3.712;2023-05-29T17:00:12;18.8;51
74458;SHT31;62896;51.032;3.712;2023-05-29T17:03:32;18.8;51
74458;SHT31;62896;51.032;3.712;2023-05-29T17:06:52;18.6;51
74458;SHT31;62896;51.032;3.712;2023-05-29T17:10:12;18.6;51
74458;SHT31;62896;51.032;3.712;2023-05-29T17:13:32;18.6;51
74458;SHT31;62896;51.032;3.712;2023-05-29T17:16:52;18.3;52
74458;SHT31;62896;51.032;3.712;2023-05-29T17:20:12;18.3;52
74458;SHT31;62896;51.032;3.712;2023-05-29T17:23:32;18.3;52
74458;SHT31;62896;51.032;3.712;2023-05-29T17:26:52;18;52
74458;SHT31;62896;51.032;3.712;2023-05-29T17:30:12;18;52
74458;SHT31;62896;51.032;3.712;2023-05-29T17:33:32;18;52
74458;SHT31;62896;51.032;3.712;2023-05-29T17:36:52;18;53
74458;SHT31;62896;51.032;3.712;2023-05-29T17:40:12;18;53
74458;SHT31;62896;51.032;3.712;2023-05-29T17:43:32;18;53
74458;SHT31;62896;51.032;3.712;2023-05-29T17:46:52;17.9;54
74458;SHT31;62896;51.032;3.712;2023-05-29T17:50:12;17.9;54
74458;SHT31;62896;51.032;3.712;2023-05-29T17:53:32;17.9;54
74458;SHT31;62896;51.032;3.712;2023-05-29T17:56:52;17.7;54
74458;SHT31;62896;51.032;3.712;2023-05-29T18:00:12;17.7;54
74458;SHT31;62896;51.032;3.712;2023-05-29T18:03:32;17.7;54
74458;SHT31;62896;51.032;3.712;2023-05-29T18:06:52;17.7;54
74458;SHT31;62896;51.032;3.712;2023-05-29T18:10:12;17.7;54
74458;SHT31;62896;51.032;3.712;2023-05-29T18:13:32;17.7;54
74458;SHT31;62896;51.032;3.712;2023-05-29T18:16:52;17.7;54
74458;SHT31;62896;51.032;3.712;2023-05-29T18:20:12;17.7;54
74458;SHT31;62896;51.032;3.712;2023-05-29T18:23:32;17.7;54
74458;SHT31;62896;51.032;3.712;2023-05-29T18:26:52;17.3;54
74458;SHT31;62896;51.032;3.712;2023-05-29T18:30:12;17.3;54
74458;SHT31;62896;51.032;3.712;2023-05-29T18:33:32;17.3;54
74458;SHT31;62896;51.032;3.712;2023-05-29T18:36:52;17.2;55
74458;SHT31;62896;51.032;3.712;2023-05-29T18:40:12;17.2;55
74458;SHT31;62896;51.032;3.712;2023-05-29T18:43:32;17.2;55
74458;SHT31;62896;51.032;3.712;2023-05-29T18:46:52;17.1;55
74458;SHT31;62896;51.032;3.712;2023-05-29T18:50:12;17.1;55
74458;SHT31;62896;51.032;3.712;2023-05-29T18:53:32;17.1;55
74458;SHT31;62896;51.032;3.712;2023-05-29T18:56:52;17;55
74458;SHT31;62896;51.032;3.712;2023-05-29T19:00:12;17;55
74458;SHT31;62896;51.032;3.712;2023-05-29T19:03:32;17;55
74458;SHT31;62896;51.032;3.712;2023-05-29T19:06:52;16.9;56
74458;SHT31;62896;51.032;3.712;2023-05-29T19:10:12;16.9;56
74458;SHT31;62896;51.032;3.712;2023-05-29T19:13:32;16.9;56
74458;SHT31;62896;51.032;3.712;2023-05-29T19:16:52;16.7;57
74458;SHT31;62896;51.032;3.712;2023-05-29T19:20:12;16.7;57
74458;SHT31;62896;51.032;3.712;2023-05-29T19:23:32;16.7;57
74458;SHT31;62896;51.032;3.712;2023-05-29T19:26:52;16.4;58
74458;SHT31;62896;51.032;3.712;2023-05-29T19:30:13;16.4;58
74458;SHT31;62896;51.032;3.712;2023-05-29T19:33:32;16.4;58
74458;SHT31;62896;51.032;3.712;2023-05-29T19:36:52;16.2;58
74458;SHT31;62896;51.032;3.712;2023-05-29T19:40:12;16.2;58
74458;SHT31;62896;51.032;3.712;2023-05-29T19:43:32;16.2;58
74458;SHT31;62896;51.032;3.712;2023-05-29T19:46:52;16.1;59
74458;SHT31;62896;51.032;3.712;2023-05-29T19:50:12;16.1;59
74458;SHT31;62896;51.032;3.712;2023-05-29T19:53:32;16.1;59
74458;SHT31;62896;51.032;3.712;2023-05-29T19:56:52;16;62
74458;SHT31;62896;51.032;3.712;2023-05-29T20:00:12;16;62
74458;SHT31;62896;51.032;3.712;2023-05-29T20:03:32;16;62
74458;SHT31;62896;51.032;3.712;2023-05-29T20:06:52;15.7;66
74458;SHT31;62896;51.032;3.712;2023-05-29T20:10:12;15.7;66
74458;SHT31;62896;51.032;3.712;2023-05-29T20:13:32;15.7;66
74458;SHT31;62896;51.032;3.712;2023-05-29T20:16:52;15.4;67
74458;SHT31;62896;51.032;3.712;2023-05-29T20:20:12;15.4;67
74458;SHT31;62896;51.032;3.712;2023-05-29T20:23:32;15.4;67
74458;SHT31;62896;51.032;3.712;2023-05-29T20:26:52;15.2;66
74458;SHT31;62896;51.032;3.712;2023-05-29T20:30:12;15.2;66
74458;SHT31;62896;51.032;3.712;2023-05-29T20:33:32;15.2;66
74458;SHT31;62896;51.032;3.712;2023-05-29T20:36:52;15.1;66
74458;SHT31;62896;51.032;3.712;2023-05-29T20:40:12;15.1;66
74458;SHT31;62896;51.032;3.712;2023-05-29T20:43:32;15.1;66
74458;SHT31;62896;51.032;3.712;2023-05-29T20:46:52;14.9;66
74458;SHT31;62896;51.032;3.712;2023-05-29T20:50:12;14.9;66
74458;SHT31;62896;51.032;3.712;2023-05-29T20:53:32;14.9;66
74458;SHT31;62896;51.032;3.712;2023-05-29T20:56:52;14.7;66
74458;SHT31;62896;51.032;3.712;2023-05-29T21:00:12;14.7;66
74458;SHT31;62896;51.032;3.712;2023-05-29T21:03:32;14.7;66
74458;SHT31;62896;51.032;3.712;2023-05-29T21:06:52;14.5;65
74458;SHT31;62896;51.032;3.712;2023-05-29T21:10:12;14.5;65
74458;SHT31;62896;51.032;3.712;2023-05-29T21:13:32;14.5;65
74458;SHT31;62896;51.032;3.712;2023-05-29T21:16:52;14.4;65
74458;SHT31;62896;51.032;3.712;2023-05-29T21:20:12;14.4;65
74458;SHT31;62896;51.032;3.712;2023-05-29T21:23:32;14.4;65
74458;SHT31;62896;51.032;3.712;2023-05-29T21:26:52;14.2;65
74458;SHT31;62896;51.032;3.712;2023-05-29T21:30:12;14.2;65
74458;SHT31;62896;51.032;3.712;2023-05-29T21:33:32;14.2;65
74458;SHT31;62896;51.032;3.712;2023-05-29T21:36:52;14;66
74458;SHT31;62896;51.032;3.712;2023-05-29T21:40:12;14;66
74458;SHT31;62896;51.032;3.712;2023-05-29T21:43:32;14;66
74458;SHT31;62896;51.032;3.712;2023-05-29T21:46:52;13.8;66
74458;SHT31;62896;51.032;3.712;2023-05-29T21:50:12;13.8;66
74458;SHT31;62896;51.032;3.712;2023-05-29T21:53:32;13.8;66
74458;SHT31;62896;51.032;3.712;2023-05-29T21:56:52;13.6;67
74458;SHT31;62896;51.032;3.712;2023-05-29T22:00:12;13.6;67
74458;SHT31;62896;51.032;3.712;2023-05-29T22:03:32;13.6;67
74458;SHT31;62896;51.032;3.712;2023-05-29T22:06:52;13.4;67
74458;SHT31;62896;51.032;3.712;2023-05-29T22:10:12;13.4;67
74458;SHT31;62896;51.032;3.712;2023-05-29T22:13:32;13.4;67
74458;SHT31;62896;51.032;3.712;2023-05-29T22:16:52;13.3;67
74458;SHT31;62896;51.032;3.712;2023-05-29T22:20:12;13.3;67
74458;SHT31;62896;51.032;3.712;2023-05-29T22:23:32;13.3;67
74458;SHT31;62896;51.032;3.712;2023-05-29T22:26:52;13.1;67
74458;SHT31;62896;51.032;3.712;2023-05-29T22:30:12;13.1;67